Ocean Beaut — WDD7485 — position and weather

sailwx.info

Track history (hours):
 
Tides and Currents Weather Stations Pressure Air Temp Water Temp Dewpoint Dewpoint Depression Visibility Wind Speed Wind Dir Waves Ship Positions

Ocean Beaut

Owner: John Moreland Fishing Inc., Astoria, OR. More information available from US FCC via Universal Licensing System.

Last reported at 2015-Mar-06 15:23 UTC. Time now 2015-Mar-06 17:38 UTC.
Position N 46°12' W 123°48'.

Length 20 m.

Type: Fishing. MMSI: 367187080.

Date/timePositionNaut miles runAvg speedWind from/ knotsBaromVisibWave heightAir tempDewpointWater temp
2015-Mar-06 15:23N 46°12' W 123°48'0 0.0
2015-Mar-06 14:20N 46°12' W 123°48'0 0.0
2015-Mar-06 12:23N 46°12' W 123°48'0 0.0
2015-Mar-06 10:20N 46°12' W 123°48'0 0.0
2015-Mar-06 09:29N 46°12' W 123°48'0 0.0
2015-Mar-06 08:17N 46°12' W 123°48'0 0.0
2015-Mar-06 07:26N 46°12' W 123°48'0 0.0
2015-Mar-06 06:29N 46°12' W 123°48'0 0.0
2015-Mar-06 05:14N 46°12' W 123°48'0 0.0
2015-Mar-05 21:18N 46°12' W 123°48'0 0.0
2015-Mar-05 20:12N 46°12' W 123°48'0 0.0
2015-Mar-05 19:24N 46°12' W 123°48'2 2.6
2015-Mar-05 18:28N 46°11' W 123°51'0 0.0
2015-Mar-05 17:31N 46°11' W 123°51'0 0.0
2015-Mar-05 16:31N 46°11' W 123°51'0 0.0
2015-Mar-05 15:31N 46°11' W 123°51'0 0.0
2015-Mar-05 14:31N 46°11' W 123°51'0 0.0
2015-Mar-05 13:31N 46°11' W 123°51'0 0.0
2015-Mar-05 12:31N 46°11' W 123°51'0 0.0
2015-Mar-05 11:31N 46°11' W 123°51'0 0.0
2015-Mar-05 10:28N 46°11' W 123°51'0 0.0
2015-Mar-05 09:31N 46°11' W 123°51'0 0.0
2015-Mar-05 08:31N 46°11' W 123°51'0 0.0
2015-Mar-05 07:31N 46°11' W 123°51'0 0.0
2015-Mar-05 06:31N 46°11' W 123°51'0 0.0
2015-Mar-05 05:28N 46°11' W 123°51'4 4.2
2015-Mar-05 04:33N 46°12' W 123°57'  
2015-Mar-01 16:31N 46°15' W 124°00'7 7.1
2015-Mar-01 15:33N 46°11' W 123°52'0 0.1
2015-Mar-01 14:34N 46°11' W 123°51'0 0.0
2015-Mar-01 13:34N 46°11' W 123°51'2 2.0
2015-Mar-01 12:22N 46°12' W 123°48'0 0.0
2015-Mar-01 11:25N 46°12' W 123°48'0 0.0
2015-Mar-01 10:28N 46°12' W 123°48'0 0.0
2015-Mar-01 09:28N 46°12' W 123°48'0 0.0
2015-Mar-01 08:28N 46°12' W 123°48'0 0.0
2015-Mar-01 07:28N 46°12' W 123°48'0 0.0
2015-Mar-01 06:28N 46°12' W 123°48'0 0.0
2015-Mar-01 05:31N 46°12' W 123°48'0 0.0
2015-Mar-01 04:22N 46°12' W 123°48'0 0.0
2015-Mar-01 03:28N 46°12' W 123°48'0 0.0
2015-Mar-01 02:28N 46°12' W 123°48'0 0.0
2015-Mar-01 01:22N 46°12' W 123°48'0 0.0
2015-Mar-01 00:22N 46°12' W 123°48'0 0.0
2015-Feb-28 21:28N 46°12' W 123°48'0 0.0
2015-Feb-28 20:22N 46°12' W 123°48'0 0.0
2015-Feb-28 19:28N 46°12' W 123°48'0 0.0
2015-Feb-28 18:28N 46°12' W 123°48'0 0.0
2015-Feb-28 17:04N 46°12' W 123°48'0 0.0
2015-Feb-28 16:16N 46°12' W 123°48'0 0.0
2015-Feb-28 15:04N 46°12' W 123°48'0 0.0
2015-Feb-28 14:28N 46°12' W 123°48'0 0.0
2015-Feb-28 13:04N 46°12' W 123°48'0 0.0
2015-Feb-28 10:28N 46°12' W 123°48'0 0.0
2015-Feb-28 09:28N 46°12' W 123°48'0 0.0
2015-Feb-28 07:28N 46°12' W 123°48'0 0.0
2015-Feb-28 06:16N 46°12' W 123°48'0 0.0
2015-Feb-28 05:25N 46°12' W 123°48'0 0.0
2015-Feb-28 02:22N 46°12' W 123°48'0 0.0
2015-Feb-27 21:28N 46°12' W 123°48'0 0.0
2015-Feb-27 16:10N 46°12' W 123°48'0 0.0
2015-Feb-27 14:28N 46°12' W 123°48'0 0.0
2015-Feb-27 13:28N 46°12' W 123°48'0 0.0
2015-Feb-27 03:20N 46°12' W 123°48'0 0.0
2015-Feb-27 02:29N 46°12' W 123°48'0 0.0
2015-Feb-26 15:23N 46°12' W 123°48'0 0.0
2015-Feb-26 14:17N 46°12' W 123°48'0 0.0
2015-Feb-26 08:14N 46°12' W 123°48'0 0.0
2015-Feb-26 05:14N 46°12' W 123°48'0 0.0
2015-Feb-26 04:17N 46°12' W 123°48'0 0.0
2015-Feb-25 23:08N 46°12' W 123°48'0 0.1
2015-Feb-25 22:06N 46°12' W 123°48'2 1.8
2015-Feb-25 21:08N 46°12' W 123°50'1 1.4
2015-Feb-25 20:33N 46°11' W 123°51'0 0.0
2015-Feb-25 19:33N 46°11' W 123°51'0 0.0
2015-Feb-25 18:33N 46°11' W 123°51'0 0.0
2015-Feb-25 17:33N 46°11' W 123°51'0 0.0
2015-Feb-25 16:33N 46°11' W 123°51'0 0.0
2015-Feb-25 15:33N 46°11' W 123°51'0 0.0
2015-Feb-25 14:33N 46°11' W 123°51'0 0.0
2015-Feb-25 13:33N 46°11' W 123°51'0 0.2
2015-Feb-25 12:33N 46°11' W 123°52'1 0.1
2015-Feb-25 00:33N 46°11' W 123°53'  
Track history (hours):
 
Tides and Currents Weather Stations Pressure Air Temp Water Temp Dewpoint Dewpoint Depression Visibility Wind Speed Wind Dir Waves Ship Positions

Ocean Beaut

Owner: John Moreland Fishing Inc., Astoria, OR. More information available from US FCC via Universal Licensing System.

Last reported at 2015-Mar-06 15:23 UTC. Time now 2015-Mar-06 17:38 UTC.
Position N 46°12' W 123°48'.

Length 20 m.

Type: Fishing. MMSI: 367187080.

Date/timePositionNaut miles runAvg speedWind from/ knotsBaromVisibWave heightAir tempDewpointWater temp
2015-Mar-06 15:23N 46°12' W 123°48'0 0.0
2015-Mar-06 14:20N 46°12' W 123°48'0 0.0
2015-Mar-06 12:23N 46°12' W 123°48'0 0.0
2015-Mar-06 10:20N 46°12' W 123°48'0 0.0
2015-Mar-06 09:29N 46°12' W 123°48'0 0.0
2015-Mar-06 08:17N 46°12' W 123°48'0 0.0
2015-Mar-06 07:26N 46°12' W 123°48'0 0.0
2015-Mar-06 06:29N 46°12' W 123°48'0 0.0
2015-Mar-06 05:14N 46°12' W 123°48'0 0.0
2015-Mar-05 21:18N 46°12' W 123°48'0 0.0
2015-Mar-05 20:12N 46°12' W 123°48'0 0.0
2015-Mar-05 19:24N 46°12' W 123°48'2 2.6
2015-Mar-05 18:28N 46°11' W 123°51'0 0.0
2015-Mar-05 17:31N 46°11' W 123°51'0 0.0
2015-Mar-05 16:31N 46°11' W 123°51'0 0.0
2015-Mar-05 15:31N 46°11' W 123°51'0 0.0
2015-Mar-05 14:31N 46°11' W 123°51'0 0.0
2015-Mar-05 13:31N 46°11' W 123°51'0 0.0
2015-Mar-05 12:31N 46°11' W 123°51'0 0.0
2015-Mar-05 11:31N 46°11' W 123°51'0 0.0
2015-Mar-05 10:28N 46°11' W 123°51'0 0.0
2015-Mar-05 09:31N 46°11' W 123°51'0 0.0
2015-Mar-05 08:31N 46°11' W 123°51'0 0.0
2015-Mar-05 07:31N 46°11' W 123°51'0 0.0
2015-Mar-05 06:31N 46°11' W 123°51'0 0.0
2015-Mar-05 05:28N 46°11' W 123°51'4 4.2
2015-Mar-05 04:33N 46°12' W 123°57'  
2015-Mar-01 16:31N 46°15' W 124°00'7 7.1
2015-Mar-01 15:33N 46°11' W 123°52'0 0.1
2015-Mar-01 14:34N 46°11' W 123°51'0 0.0
2015-Mar-01 13:34N 46°11' W 123°51'2 2.0
2015-Mar-01 12:22N 46°12' W 123°48'0 0.0
2015-Mar-01 11:25N 46°12' W 123°48'0 0.0
2015-Mar-01 10:28N 46°12' W 123°48'0 0.0
2015-Mar-01 09:28N 46°12' W 123°48'0 0.0
2015-Mar-01 08:28N 46°12' W 123°48'0 0.0
2015-Mar-01 07:28N 46°12' W 123°48'0 0.0
2015-Mar-01 06:28N 46°12' W 123°48'0 0.0
2015-Mar-01 05:31N 46°12' W 123°48'0 0.0
2015-Mar-01 04:22N 46°12' W 123°48'0 0.0
2015-Mar-01 03:28N 46°12' W 123°48'0 0.0
2015-Mar-01 02:28N 46°12' W 123°48'0 0.0
2015-Mar-01 01:22N 46°12' W 123°48'0 0.0
2015-Mar-01 00:22N 46°12' W 123°48'0 0.0
2015-Feb-28 21:28N 46°12' W 123°48'0 0.0
2015-Feb-28 20:22N 46°12' W 123°48'0 0.0
2015-Feb-28 19:28N 46°12' W 123°48'0 0.0
2015-Feb-28 18:28N 46°12' W 123°48'0 0.0
2015-Feb-28 17:04N 46°12' W 123°48'0 0.0
2015-Feb-28 16:16N 46°12' W 123°48'0 0.0
2015-Feb-28 15:04N 46°12' W 123°48'0 0.0
2015-Feb-28 14:28N 46°12' W 123°48'0 0.0
2015-Feb-28 13:04N 46°12' W 123°48'0 0.0
2015-Feb-28 10:28N 46°12' W 123°48'0 0.0
2015-Feb-28 09:28N 46°12' W 123°48'0 0.0
2015-Feb-28 07:28N 46°12' W 123°48'0 0.0
2015-Feb-28 06:16N 46°12' W 123°48'0 0.0
2015-Feb-28 05:25N 46°12' W 123°48'0 0.0
2015-Feb-28 02:22N 46°12' W 123°48'0 0.0
2015-Feb-27 21:28N 46°12' W 123°48'0 0.0
2015-Feb-27 16:10N 46°12' W 123°48'0 0.0
2015-Feb-27 14:28N 46°12' W 123°48'0 0.0
2015-Feb-27 13:28N 46°12' W 123°48'0 0.0
2015-Feb-27 03:20N 46°12' W 123°48'0 0.0
2015-Feb-27 02:29N 46°12' W 123°48'0 0.0
2015-Feb-26 15:23N 46°12' W 123°48'0 0.0
2015-Feb-26 14:17N 46°12' W 123°48'0 0.0
2015-Feb-26 08:14N 46°12' W 123°48'0 0.0
2015-Feb-26 05:14N 46°12' W 123°48'0 0.0
2015-Feb-26 04:17N 46°12' W 123°48'0 0.0
2015-Feb-25 23:08N 46°12' W 123°48'0 0.1
2015-Feb-25 22:06N 46°12' W 123°48'2 1.8
2015-Feb-25 21:08N 46°12' W 123°50'1 1.4
2015-Feb-25 20:33N 46°11' W 123°51'0 0.0
2015-Feb-25 19:33N 46°11' W 123°51'0 0.0
2015-Feb-25 18:33N 46°11' W 123°51'0 0.0
2015-Feb-25 17:33N 46°11' W 123°51'0 0.0
2015-Feb-25 16:33N 46°11' W 123°51'0 0.0
2015-Feb-25 15:33N 46°11' W 123°51'0 0.0
2015-Feb-25 14:33N 46°11' W 123°51'0 0.0
2015-Feb-25 13:33N 46°11' W 123°51'0 0.2
2015-Feb-25 12:33N 46°11' W 123°52'1 0.1
2015-Feb-25 00:33N 46°11' W 123°53'  

Dump ship's entire track history